Time;durP1;ratioP1;P1;durP2;ratioP2;P2;SDS_P1;SDS_P2;PMS_P1;PMS_P2;Temp;Humidity;BMP_temperature;BMP_pressure;BME280_temperature;BME280_humidity;BME280_pressure;Samples;Min_cycle;Max_cycle;Signal;HPM_P1;HPM_P2
2021/11/28 00:01:49;;;;;;;28.42;11.23;;;;;;;;;;5004319;28;20059;-57
2021/11/28 00:04:19;;;;;;;28.40;9.60;;;;;;;;;;4984578;28;20144;-57
2021/11/28 00:06:59;;;;;;;26.02;9.82;;;;;;;;;;5005006;28;20029;-58
2021/11/28 00:12:10;;;;;;;19.60;9.50;;;;;;;;;;5010232;28;20065;-58
2021/11/28 00:14:37;;;;;;;;;;;;;;;;;;4991757;28;21368;-57
2021/11/28 00:17:05;;;;;;;25.77;9.77;;;;;;;;;;4993007;28;20375;-58
2021/11/28 00:19:33;;;;;;;27.65;9.40;;;;;;;;;;5014546;28;20040;-57
2021/11/28 00:22:01;;;;;;;30.55;10.27;;;;;;;;;;4996768;28;20037;-57
2021/11/28 00:24:26;;;;;;;23.58;10.48;;;;;;;;;;5015379;28;20040;-56
2021/11/28 00:26:54;;;;;;;31.17;10.60;;;;;;;;;;5016812;28;20505;-57
2021/11/28 00:29:19;;;;;;;25.60;10.43;;;;;;;;;;5015809;28;20037;-58
2021/11/28 00:31:50;;;;;;;23.38;9.65;;;;;;;;;;4993843;28;20041;-58
2021/11/28 00:34:15;;;;;;;23.45;11.02;;;;;;;;;;5015704;28;20033;-58
2021/11/28 00:36:46;;;;;;;28.92;10.43;;;;;;;;;;5015077;28;20026;-58
2021/11/28 00:39:11;;;;;;;24.95;11.05;;;;;;;;;;4975303;28;20057;-57
2021/11/28 00:41:39;;;;;;;24.65;10.40;;;;;;;;;;5011637;28;20021;-57
2021/11/28 00:44:04;;;;;;;23.52;10.48;;;;;;;;;;5013163;28;20130;-57
2021/11/28 00:46:32;;;;;;;25.60;10.18;;;;;;;;;;5012117;28;20033;-58
2021/11/28 00:48:59;;;;;;;22.77;10.63;;;;;;;;;;4995044;28;20037;-58
2021/11/28 00:51:35;;;;;;;26.98;11.63;;;;;;;;;;4993032;28;20512;-57
2021/11/28 00:54:00;;;;;;;22.52;10.75;;;;;;;;;;5013493;28;20203;-58
2021/11/28 00:56:28;;;;;;;21.20;9.68;;;;;;;;;;5013141;28;20025;-57
2021/11/28 00:58:56;;;;;;;25.52;10.23;;;;;;;;;;5014589;28;20034;-57
2021/11/28 01:01:26;;;;;;;25.23;10.25;;;;;;;;;;5009620;28;20692;-58
2021/11/28 01:03:54;;;;;;;25.15;10.68;;;;;;;;;;4993932;28;20110;-59
2021/11/28 01:06:21;;;;;;;36.58;11.07;;;;;;;;;;5014296;28;20032;-58
2021/11/28 01:08:47;;;;;;;21.95;9.90;;;;;;;;;;4994880;28;20037;-58
2021/11/28 01:11:12;;;;;;;23.85;10.52;;;;;;;;;;4993808;28;20110;-58
2021/11/28 01:13:40;;;;;;;24.88;10.98;;;;;;;;;;5014896;28;20017;-58
2021/11/28 01:16:08;;;;;;;27.60;10.23;;;;;;;;;;5013129;28;21056;-58
2021/11/28 01:18:34;;;;;;;21.65;10.30;;;;;;;;;;5010790;28;20036;-57
2021/11/28 01:21:09;;;;;;;24.15;9.07;;;;;;;;;;5011978;28;20017;-59
2021/11/28 01:23:35;;;;;;;31.58;10.25;;;;;;;;;;5014646;28;20043;-58
2021/11/28 01:26:03;;;;;;;27.13;10.80;;;;;;;;;;4987399;28;20029;-58
2021/11/28 01:28:31;;;;;;;16.20;8.60;;;;;;;;;;4993134;28;20923;-58
2021/11/28 01:30:59;;;;;;;28.02;11.75;;;;;;;;;;5012668;28;20052;-58
2021/11/28 01:33:28;;;;;;;21.63;10.00;;;;;;;;;;5009619;28;20045;-58
2021/11/28 01:35:53;;;;;;;28.13;10.77;;;;;;;;;;4991812;28;20532;-56
2021/11/28 01:38:20;;;;;;;28.75;11.68;;;;;;;;;;5011248;28;20033;-58
2021/11/28 01:40:49;;;;;;;31.10;11.60;;;;;;;;;;5005907;28;20022;-57
2021/11/28 01:43:17;;;;;;;31.40;10.95;;;;;;;;;;5011506;28;20029;-58
2021/11/28 01:45:46;;;;;;;27.67;10.68;;;;;;;;;;5013189;28;20033;-57
2021/11/28 01:48:15;;;;;;;32.75;10.75;;;;;;;;;;5010410;28;20033;-58
2021/11/28 01:50:43;;;;;;;27.63;10.52;;;;;;;;;;5012405;28;20514;-57
2021/11/28 01:53:12;;;;;;;27.92;11.60;;;;;;;;;;5010544;28;20029;-58
2021/11/28 01:55:38;;;;;;;24.65;9.98;;;;;;;;;;5012104;28;20041;-58
2021/11/28 01:58:08;;;;;;;29.17;11.57;;;;;;;;;;4992912;28;20030;-57
2021/11/28 02:04:17;;;;;;;25.45;9.23;;;;;;;;;;5012431;28;20543;-58
2021/11/28 02:06:49;;;;;;;19.90;8.60;;;;;;;;;;4990037;28;20025;-57
2021/11/28 02:09:17;;;;;;;18.52;9.35;;;;;;;;;;5010968;28;20037;-59
2021/11/28 02:11:46;;;;;;;27.38;10.50;;;;;;;;;;4975818;28;20793;-58
2021/11/28 02:14:13;;;;;;;25.42;10.60;;;;;;;;;;4974142;28;20041;-58
2021/11/28 02:16:39;;;;;;;27.08;10.63;;;;;;;;;;5009079;28;20072;-58
2021/11/28 02:19:04;;;;;;;26.40;10.13;;;;;;;;;;4992828;28;20032;-58
2021/11/28 02:21:30;;;;;;;31.75;10.55;;;;;;;;;;5010160;28;20048;-58
2021/11/28 02:24:05;;;;;;;24.67;9.98;;;;;;;;;;5012025;28;20034;-58
2021/11/28 02:26:35;;;;;;;24.20;9.55;;;;;;;;;;5009549;28;20087;-57
2021/11/28 02:29:05;;;;;;;28.88;10.95;;;;;;;;;;4976399;28;20496;-59
2021/11/28 02:31:33;;;;;;;32.45;11.05;;;;;;;;;;5010639;28;20060;-58
2021/11/28 02:34:03;;;;;;;30.65;10.48;;;;;;;;;;5011162;28;20037;-59
2021/11/28 02:36:34;;;;;;;28.25;10.68;;;;;;;;;;5013104;28;20527;-58
2021/11/28 02:38:59;;;;;;;24.52;10.25;;;;;;;;;;5008458;28;20083;-57
2021/11/28 02:41:27;;;;;;;30.67;10.52;;;;;;;;;;5009389;28;20530;-59
2021/11/28 02:43:57;;;;;;;23.15;9.82;;;;;;;;;;4989656;28;20034;-59
2021/11/28 02:46:27;;;;;;;25.50;10.32;;;;;;;;;;4964298;28;20029;-58
2021/11/28 02:48:58;;;;;;;25.80;10.85;;;;;;;;;;5010642;28;20123;-58
2021/11/28 02:51:28;;;;;;;28.08;12.25;;;;;;;;;;4993152;28;20033;-58
2021/11/28 02:53:58;;;;;;;31.33;10.27;;;;;;;;;;4996583;28;20029;-58
2021/11/28 02:56:26;;;;;;;31.38;10.50;;;;;;;;;;5011906;28;20038;-58
2021/11/28 02:58:54;;;;;;;27.80;11.38;;;;;;;;;;4994022;28;20155;-57
2021/11/28 03:01:22;;;;;;;28.17;10.23;;;;;;;;;;4975486;28;20045;-59
2021/11/28 03:03:51;;;;;;;28.88;11.00;;;;;;;;;;4993622;28;20025;-58
2021/11/28 03:06:19;;;;;;;21.75;9.77;;;;;;;;;;5006373;28;20071;-58
2021/11/28 03:08:49;;;;;;;36.35;9.98;;;;;;;;;;4990588;28;20038;-58
2021/11/28 03:11:23;;;;;;;26.70;10.82;;;;;;;;;;4970027;28;20151;-58
2021/11/28 03:13:54;;;;;;;30.05;10.63;;;;;;;;;;4983362;28;20045;-59
2021/11/28 03:16:25;;;;;;;26.23;11.05;;;;;;;;;;4972680;28;20033;-58
2021/11/28 03:18:53;;;;;;;24.27;10.73;;;;;;;;;;4986612;28;20432;-61
2021/11/28 03:21:26;;;;;;;23.33;10.15;;;;;;;;;;4988659;28;20032;-58
2021/11/28 03:23:53;;;;;;;23.25;9.43;;;;;;;;;;4989665;28;20120;-58
2021/11/28 03:26:25;;;;;;;24.88;9.90;;;;;;;;;;4973853;28;20128;-57
2021/11/28 03:28:58;;;;;;;33.22;10.95;;;;;;;;;;4968102;28;20071;-58
2021/11/28 03:31:32;;;;;;;26.73;10.15;;;;;;;;;;4971689;28;20038;-58
2021/11/28 03:33:58;;;;;;;23.08;10.20;;;;;;;;;;4973570;28;20417;-59
2021/11/28 03:36:26;;;;;;;25.42;10.18;;;;;;;;;;4990710;28;20050;-58
2021/11/28 03:38:53;;;;;;;22.15;9.85;;;;;;;;;;4971977;28;20121;-57
2021/11/28 03:41:23;;;;;;;29.20;11.45;;;;;;;;;;4969201;28;20022;-59
2021/11/28 03:44:26;;;;;;;25.38;10.07;;;;;;;;;;4974593;28;20034;-58
2021/11/28 03:46:52;;;;;;;26.27;9.88;;;;;;;;;;4974178;28;20119;-58
2021/11/28 03:49:18;;;;;;;31.85;11.35;;;;;;;;;;4986632;28;20033;-60
2021/11/28 03:51:43;;;;;;;27.17;10.73;;;;;;;;;;4986429;28;20772;-58
2021/11/28 03:54:13;;;;;;;33.75;11.30;;;;;;;;;;4990134;28;20025;-59
2021/11/28 03:56:41;;;;;;;32.67;11.70;;;;;;;;;;4954496;28;20041;-58
2021/11/28 03:59:11;;;;;;;37.42;11.98;;;;;;;;;;4992740;28;20033;-58
2021/11/28 04:01:40;;;;;;;31.98;11.45;;;;;;;;;;4988721;28;20171;-58
2021/11/28 04:04:08;;;;;;;27.92;11.65;;;;;;;;;;4982427;28;20038;-58
2021/11/28 04:06:41;;;;;;;30.63;12.13;;;;;;;;;;4954574;28;20034;-58
2021/11/28 04:09:07;;;;;;;28.45;9.85;;;;;;;;;;4968660;28;20045;-57
2021/11/28 04:11:39;;;;;;;35.05;12.35;;;;;;;;;;4983601;28;20034;-57
2021/11/28 04:14:05;;;;;;;27.85;11.35;;;;;;;;;;4987165;28;20049;-58
2021/11/28 04:16:36;;;;;;;29.55;11.82;;;;;;;;;;4984402;28;20053;-57
2021/11/28 04:19:01;;;;;;;28.30;10.98;;;;;;;;;;4988006;28;20358;-57
2021/11/28 04:21:27;;;;;;;27.42;10.82;;;;;;;;;;4971766;28;20030;-59
2021/11/28 04:23:55;;;;;;;36.33;11.85;;;;;;;;;;4975753;28;20030;-57
2021/11/28 04:26:25;;;;;;;35.65;11.02;;;;;;;;;;4968815;28;20060;-57
2021/11/28 04:28:56;;;;;;;45.53;14.60;;;;;;;;;;4968653;28;20049;-59
2021/11/28 04:31:23;;;;;;;43.67;14.02;;;;;;;;;;4967967;28;20030;-58
2021/11/28 04:33:51;;;;;;;42.08;14.65;;;;;;;;;;4973159;28;20119;-57
2021/11/28 04:36:16;;;;;;;34.67;12.70;;;;;;;;;;4973793;28;20168;-59
2021/11/28 04:38:49;;;;;;;45.38;13.05;;;;;;;;;;4971688;28;20105;-58
2021/11/28 04:41:20;;;;;;;41.67;12.38;;;;;;;;;;4987391;28;20857;-58
2021/11/28 04:43:46;;;;;;;34.45;12.32;;;;;;;;;;4986702;28;20423;-58
2021/11/28 04:46:13;;;;;;;36.28;11.27;;;;;;;;;;4969475;28;20030;-58
2021/11/28 04:48:49;;;;;;;33.17;10.90;;;;;;;;;;4970717;28;20034;-57
2021/11/28 04:51:14;;;;;;;30.63;10.55;;;;;;;;;;4985244;28;20022;-58
2021/11/28 04:53:42;;;;;;;32.70;11.35;;;;;;;;;;4972556;28;20737;-59
2021/11/28 04:56:09;;;;;;;29.65;10.35;;;;;;;;;;4953076;28;21957;-57
2021/11/28 04:58:40;;;;;;;27.00;11.27;;;;;;;;;;4963737;28;20041;-58
2021/11/28 05:01:08;;;;;;;24.90;10.02;;;;;;;;;;4967609;28;20045;-56
2021/11/28 05:03:35;;;;;;;30.80;10.38;;;;;;;;;;4983961;28;20045;-57
2021/11/28 05:06:01;;;;;;;26.88;9.30;;;;;;;;;;4987309;28;22112;-59
2021/11/28 05:08:31;;;;;;;30.42;10.32;;;;;;;;;;4977576;28;20157;-59
2021/11/28 05:10:57;;;;;;;19.45;9.40;;;;;;;;;;4990844;28;20059;-59
2021/11/28 05:13:24;;;;;;;27.42;10.77;;;;;;;;;;4992250;28;20071;-57
2021/11/28 05:15:54;;;;;;;25.00;9.65;;;;;;;;;;5015546;28;20034;-57
2021/11/28 05:18:22;;;;;;;21.77;9.70;;;;;;;;;;5013257;28;20030;-57
2021/11/28 05:20:55;;;;;;;19.80;9.20;;;;;;;;;;4993389;28;20038;-58
2021/11/28 05:23:25;;;;;;;23.08;9.35;;;;;;;;;;4997558;28;22138;-58
2021/11/28 05:25:55;;;;;;;26.30;9.82;;;;;;;;;;5014251;28;20053;-57
2021/11/28 05:28:23;;;;;;;24.13;9.23;;;;;;;;;;5012197;28;21282;-59
2021/11/28 05:30:51;;;;;;;23.83;9.38;;;;;;;;;;4948942;28;20045;-60
2021/11/28 05:33:18;;;;;;;21.67;9.15;;;;;;;;;;4978325;28;20045;-59
2021/11/28 05:35:44;;;;;;;21.17;11.35;;;;;;;;;;4994096;28;20111;-59
2021/11/28 05:38:09;;;;;;;23.60;9.52;;;;;;;;;;4991835;28;20522;-58
2021/11/28 05:40:38;;;;;;;20.88;9.32;;;;;;;;;;5012793;28;20037;-58
2021/11/28 05:43:04;;;;;;;23.60;9.52;;;;;;;;;;4992174;28;20156;-58
2021/11/28 05:45:31;;;;;;;21.63;10.00;;;;;;;;;;4993784;28;20472;-57
2021/11/28 05:47:59;;;;;;;27.40;10.95;;;;;;;;;;5015046;28;20124;-57
2021/11/28 05:50:27;;;;;;;24.95;10.30;;;;;;;;;;4993358;28;20041;-58
2021/11/28 05:52:55;;;;;;;22.17;10.05;;;;;;;;;;5011654;28;20667;-57
2021/11/28 05:55:20;;;;;;;21.02;9.00;;;;;;;;;;5013141;28;20487;-59
2021/11/28 05:57:47;;;;;;;21.52;9.68;;;;;;;;;;5009665;28;20025;-58
2021/11/28 06:00:22;;;;;;;28.15;10.05;;;;;;;;;;5017444;28;20036;-59
2021/11/28 06:02:48;;;;;;;18.70;9.02;;;;;;;;;;4993262;28;20029;-59
2021/11/28 06:05:13;;;;;;;21.90;9.00;;;;;;;;;;4999751;28;20074;-58
2021/11/28 06:07:41;;;;;;;20.13;9.35;;;;;;;;;;5018570;28;20041;-57
2021/11/28 06:10:10;;;;;;;21.60;9.85;;;;;;;;;;5020324;28;20057;-57
2021/11/28 06:12:35;;;;;;;23.13;8.50;;;;;;;;;;4996623;28;20060;-58
2021/11/28 06:15:03;;;;;;;18.58;8.45;;;;;;;;;;4983149;28;20041;-58
2021/11/28 06:17:28;;;;;;;17.50;7.65;;;;;;;;;;5016058;28;20029;-58
2021/11/28 06:19:54;;;;;;;17.10;7.72;;;;;;;;;;4978676;28;22141;-57
2021/11/28 06:22:21;;;;;;;20.02;8.60;;;;;;;;;;4988329;28;20124;-58
2021/11/28 06:24:47;;;;;;;18.13;7.30;;;;;;;;;;4992912;28;20180;-58
2021/11/28 06:27:14;;;;;;;17.73;7.00;;;;;;;;;;5013179;28;20045;-58
2021/11/28 06:29:43;;;;;;;21.77;8.88;;;;;;;;;;5015290;28;21953;-57
2021/11/28 06:32:13;;;;;;;21.70;7.35;;;;;;;;;;5013098;28;20040;-57
2021/11/28 06:34:38;;;;;;;17.95;7.47;;;;;;;;;;5012922;28;20042;-57
2021/11/28 06:37:06;;;;;;;15.35;6.80;;;;;;;;;;4980307;28;20026;-58
2021/11/28 06:39:31;;;;;;;17.25;7.13;;;;;;;;;;4993426;28;20041;-58
2021/11/28 06:42:02;;;;;;;14.75;7.28;;;;;;;;;;5014316;28;20029;-57
2021/11/28 06:44:31;;;;;;;14.45;7.18;;;;;;;;;;4981991;28;20488;-58
2021/11/28 06:46:56;;;;;;;16.10;6.10;;;;;;;;;;5012959;28;20043;-59
2021/11/28 06:49:26;;;;;;;11.70;5.03;;;;;;;;;;4996282;28;20025;-58
2021/11/28 06:51:58;;;;;;;12.43;5.13;;;;;;;;;;5003767;28;20180;-58
2021/11/28 06:54:26;;;;;;;17.67;5.80;;;;;;;;;;5008015;28;20038;-58
2021/11/28 06:56:53;;;;;;;11.52;5.03;;;;;;;;;;5003432;28;20432;-57
2021/11/28 06:59:21;;;;;;;8.68;3.75;;;;;;;;;;4992395;28;20045;-56
2021/11/28 07:01:48;;;;;;;11.65;4.38;;;;;;;;;;5013900;28;20033;-58
2021/11/28 07:04:13;;;;;;;10.13;4.85;;;;;;;;;;5012357;28;20107;-59
2021/11/28 07:06:39;;;;;;;10.75;4.60;;;;;;;;;;5007122;28;20044;-57
2021/11/28 07:09:04;;;;;;;10.68;4.38;;;;;;;;;;4982835;28;20103;-58
2021/11/28 07:11:32;;;;;;;10.73;4.03;;;;;;;;;;4972725;28;20167;-58
2021/11/28 07:14:02;;;;;;;9.73;4.20;;;;;;;;;;4968455;28;20056;-58
2021/11/28 07:20:07;;;;;;;12.93;4.47;;;;;;;;;;5009719;28;20060;-57
2021/11/28 07:22:33;;;;;;;9.95;4.18;;;;;;;;;;5010955;28;20292;-57
2021/11/28 07:24:59;;;;;;;8.40;3.33;;;;;;;;;;4990902;28;20034;-57
2021/11/28 07:27:27;;;;;;;8.63;4.05;;;;;;;;;;5005675;28;20033;-57
2021/11/28 07:29:57;;;;;;;8.70;3.67;;;;;;;;;;4988926;28;20052;-56
2021/11/28 07:32:27;;;;;;;5.25;3.15;;;;;;;;;;5005120;28;20041;-57
2021/11/28 07:34:52;;;;;;;4.50;2.42;;;;;;;;;;4976389;28;20044;-58
2021/11/28 07:37:18;;;;;;;3.47;2.58;;;;;;;;;;5009557;28;20029;-57
2021/11/28 07:39:43;;;;;;;4.90;2.95;;;;;;;;;;4991672;28;20233;-58
2021/11/28 07:42:13;;;;;;;6.50;2.92;;;;;;;;;;4989078;28;20021;-57
2021/11/28 07:44:41;;;;;;;6.43;2.88;;;;;;;;;;5006204;28;20037;-56
2021/11/28 07:47:08;;;;;;;5.72;2.65;;;;;;;;;;4996015;28;20037;-57
2021/11/28 07:49:38;;;;;;;5.82;2.85;;;;;;;;;;5012528;28;20159;-58
2021/11/28 07:52:06;;;;;;;8.05;2.63;;;;;;;;;;5009104;28;20083;-58
2021/11/28 07:54:32;;;;;;;4.30;2.72;;;;;;;;;;4989508;28;20064;-56
2021/11/28 07:57:02;;;;;;;6.10;2.63;;;;;;;;;;5012609;28;21917;-56
2021/11/28 07:59:29;;;;;;;5.18;3.05;;;;;;;;;;5003619;28;20524;-57
2021/11/28 08:01:55;;;;;;;9.65;3.58;;;;;;;;;;5008677;28;20041;-58
2021/11/28 08:04:23;;;;;;;6.55;3.22;;;;;;;;;;4984874;28;20053;-56
2021/11/28 08:06:48;;;;;;;5.72;3.20;;;;;;;;;;4986117;28;20764;-58
2021/11/28 08:09:16;;;;;;;8.18;3.35;;;;;;;;;;4976056;28;20159;-57
2021/11/28 08:11:42;;;;;;;5.90;3.72;;;;;;;;;;5007930;28;20033;-58
2021/11/28 08:14:07;;;;;;;6.65;3.80;;;;;;;;;;5010355;28;20414;-58
2021/11/28 08:16:38;;;;;;;5.22;3.28;;;;;;;;;;5011770;28;20171;-57
2021/11/28 08:19:04;;;;;;;8.95;3.78;;;;;;;;;;4994275;28;20124;-57
2021/11/28 08:21:30;;;;;;;7.93;4.05;;;;;;;;;;4979779;28;20017;-58
2021/11/28 08:24:04;;;;;;;9.20;4.00;;;;;;;;;;4982698;28;20063;-58
2021/11/28 08:26:36;;;;;;;8.55;3.88;;;;;;;;;;5008151;28;20061;-58
2021/11/28 08:29:05;;;;;;;6.25;3.80;;;;;;;;;;5005199;28;21002;-59
2021/11/28 08:31:31;;;;;;;9.02;3.65;;;;;;;;;;5009388;28;20021;-57
2021/11/28 08:34:01;;;;;;;7.82;2.92;;;;;;;;;;5004367;28;21043;-57
2021/11/28 08:36:29;;;;;;;6.72;2.33;;;;;;;;;;4989036;28;20030;-57
2021/11/28 08:38:57;;;;;;;3.33;2.22;;;;;;;;;;4988748;28;20029;-59
2021/11/28 08:41:27;;;;;;;4.13;2.47;;;;;;;;;;4989366;28;20174;-58
2021/11/28 08:43:56;;;;;;;3.75;2.13;;;;;;;;;;5012108;28;20076;-58
2021/11/28 08:46:22;;;;;;;3.90;2.30;;;;;;;;;;5009149;28;20029;-57
2021/11/28 08:48:53;;;;;;;4.20;1.92;;;;;;;;;;5016925;28;20063;-57
2021/11/28 08:51:20;;;;;;;2.33;1.25;;;;;;;;;;5007591;28;20119;-57
2021/11/28 08:53:46;;;;;;;2.05;1.10;;;;;;;;;;5014426;28;20044;-57
2021/11/28 08:56:14;;;;;;;3.10;1.20;;;;;;;;;;4991943;28;20692;-57
2021/11/28 08:58:42;;;;;;;2.83;0.80;;;;;;;;;;4993354;28;20045;-59
2021/11/28 09:01:10;;;;;;;2.60;0.70;;;;;;;;;;4997013;28;20037;-57
2021/11/28 09:03:38;;;;;;;1.25;0.77;;;;;;;;;;4979895;28;20025;-59
2021/11/28 09:06:03;;;;;;;0.50;0.47;;;;;;;;;;5011681;28;20669;-58
2021/11/28 09:08:29;;;;;;;0.47;0.40;;;;;;;;;;5013050;28;22081;-58
2021/11/28 09:10:57;;;;;;;6.68;0.43;;;;;;;;;;5011135;28;20037;-59
2021/11/28 09:13:22;;;;;;;1.10;0.38;;;;;;;;;;4999091;28;20038;-59
2021/11/28 09:15:53;;;;;;;0.80;0.38;;;;;;;;;;4994690;28;20033;-57
2021/11/28 09:18:27;;;;;;;1.88;0.43;;;;;;;;;;4999487;28;20041;-59
2021/11/28 09:20:58;;;;;;;0.63;0.47;;;;;;;;;;4996652;28;20037;-59
2021/11/28 09:26:10;;;;;;;0.47;0.20;;;;;;;;;;4952308;28;20100;-58
2021/11/28 09:28:40;;;;;;;2.05;0.43;;;;;;;;;;4994243;28;20080;-58
2021/11/28 09:31:13;;;;;;;0.38;0.13;;;;;;;;;;5007988;28;20029;-57
2021/11/28 09:33:41;;;;;;;0.35;0.32;;;;;;;;;;5011541;28;20064;-58
2021/11/28 09:36:09;;;;;;;0.68;0.30;;;;;;;;;;5012376;28;20876;-58
2021/11/28 09:38:39;;;;;;;1.95;0.30;;;;;;;;;;4995060;28;20037;-58
2021/11/28 09:41:09;;;;;;;0.45;0.30;;;;;;;;;;5010692;28;20030;-57
2021/11/28 09:43:40;;;;;;;0.32;0.17;;;;;;;;;;5010877;28;20190;-58
2021/11/28 09:46:09;;;;;;;0.40;0.15;;;;;;;;;;5012315;28;20108;-58
2021/11/28 09:48:35;;;;;;;0.88;0.30;;;;;;;;;;4997339;28;20033;-57
2021/11/28 09:51:23;;;;;;;5.47;0.50;;;;;;;;;;4993495;28;20045;-56
2021/11/28 09:53:49;;;;;;;0.63;0.20;;;;;;;;;;5013006;28;20064;-57
2021/11/28 09:56:14;;;;;;;0.45;0.22;;;;;;;;;;5008119;28;20947;-58
2021/11/28 09:58:43;;;;;;;0.70;0.30;;;;;;;;;;5013083;28;22052;-58
2021/11/28 10:01:14;;;;;;;0.20;0.15;;;;;;;;;;5014523;28;20041;-58
2021/11/28 10:03:40;;;;;;;0.20;0.08;;;;;;;;;;4992677;28;20482;-59
2021/11/28 10:06:20;;;;;;;0.30;0.20;;;;;;;;;;4994243;28;20223;-59
2021/11/28 10:08:46;;;;;;;0.63;0.57;;;;;;;;;;5011315;28;20326;-59
2021/11/28 10:11:18;;;;;;;0.45;0.30;;;;;;;;;;5009152;28;20033;-58
2021/11/28 10:13:48;;;;;;;3.78;0.43;;;;;;;;;;4987030;28;20126;-57
2021/11/28 10:16:16;;;;;;;1.27;0.28;;;;;;;;;;5006548;28;20167;-60
2021/11/28 10:18:43;;;;;;;4.30;0.77;;;;;;;;;;5009813;28;20568;-59
2021/11/28 10:21:08;;;;;;;2.17;0.10;;;;;;;;;;5012515;28;20045;-57
2021/11/28 10:23:34;;;;;;;1.02;0.20;;;;;;;;;;5010759;28;20022;-56
2021/11/28 10:26:14;;;;;;;1.15;0.32;;;;;;;;;;5010508;28;20037;-58
2021/11/28 10:29:00;;;;;;;6.93;0.40;;;;;;;;;;5007958;28;21038;-57
2021/11/28 10:31:26;;;;;;;0.10;0.10;;;;;;;;;;5006176;28;20091;-58
2021/11/28 10:33:51;;;;;;;0.85;0.10;;;;;;;;;;5009887;28;20044;-56
2021/11/28 10:36:19;;;;;;;2.72;0.28;;;;;;;;;;4989769;28;20037;-56
2021/11/28 10:38:45;;;;;;;1.48;0.30;;;;;;;;;;5010242;28;20029;-57
2021/11/28 10:41:21;;;;;;;0.57;0.15;;;;;;;;;;4995603;28;20076;-57
2021/11/28 10:43:49;;;;;;;0.10;0.00;;;;;;;;;;5010143;28;20504;-57
2021/11/28 10:46:24;;;;;;;0.60;0.30;;;;;;;;;;4982668;28;20082;-57
2021/11/28 10:49:02;;;;;;;1.33;0.30;;;;;;;;;;4990690;28;20788;-58
2021/11/28 10:51:33;;;;;;;1.58;0.28;;;;;;;;;;5012828;28;20032;-56
2021/11/28 10:54:01;;;;;;;0.20;0.10;;;;;;;;;;5006426;28;20045;-56
2021/11/28 10:56:27;;;;;;;5.78;0.40;;;;;;;;;;5003283;28;20694;-56
2021/11/28 10:59:12;;;;;;;0.90;0.30;;;;;;;;;;4990952;28;20056;-56
2021/11/28 11:01:39;;;;;;;1.92;0.30;;;;;;;;;;5005448;28;20032;-57
2021/11/28 11:04:17;;;;;;;3.65;0.47;;;;;;;;;;4975412;28;20029;-57
2021/11/28 11:07:05;;;;;;;2.30;0.30;;;;;;;;;;5011955;28;20036;-56
2021/11/28 11:09:37;;;;;;;1.58;0.40;;;;;;;;;;4992512;28;20150;-57
2021/11/28 11:12:17;;;;;;;2.95;0.50;;;;;;;;;;5011102;28;22297;-61
2021/11/28 11:14:43;;;;;;;2.05;0.43;;;;;;;;;;5007453;28;20271;-57
2021/11/28 11:17:11;;;;;;;3.85;0.60;;;;;;;;;;4990633;28;20120;-57
2021/11/28 11:19:40;;;;;;;4.97;0.52;;;;;;;;;;4989771;28;20128;-57
2021/11/28 11:22:15;;;;;;;0.80;0.40;;;;;;;;;;5006697;28;20063;-57
2021/11/28 11:24:55;;;;;;;2.15;0.35;;;;;;;;;;4985448;28;20045;-57
2021/11/28 11:27:25;;;;;;;5.05;0.60;;;;;;;;;;4990392;28;20072;-59
2021/11/28 11:29:52;;;;;;;8.60;0.50;;;;;;;;;;4961359;28;20136;-57
2021/11/28 11:32:25;;;;;;;1.65;0.40;;;;;;;;;;5004575;28;20047;-56
2021/11/28 11:34:56;;;;;;;5.53;0.57;;;;;;;;;;4995147;28;20037;-56
2021/11/28 11:37:26;;;;;;;1.20;0.40;;;;;;;;;;5009182;28;20025;-58
2021/11/28 11:39:56;;;;;;;2.00;0.20;;;;;;;;;;5010021;28;20481;-59
2021/11/28 11:42:22;;;;;;;3.03;0.38;;;;;;;;;;4989495;28;20025;-56
2021/11/28 11:44:50;;;;;;;9.77;0.82;;;;;;;;;;4995025;28;20041;-57
2021/11/28 11:47:22;;;;;;;2.25;0.32;;;;;;;;;;5005565;28;20040;-57
2021/11/28 11:49:50;;;;;;;3.20;0.20;;;;;;;;;;4985587;28;20151;-58
2021/11/28 11:52:19;;;;;;;2.63;0.65;;;;;;;;;;5010587;28;20029;-58
2021/11/28 11:54:51;;;;;;;6.13;0.50;;;;;;;;;;5007865;28;20033;-58
2021/11/28 11:57:46;;;;;;;1.65;0.50;;;;;;;;;;5004651;28;20029;-58
2021/11/28 12:00:23;;;;;;;2.15;0.40;;;;;;;;;;4994110;28;20076;-56
2021/11/28 12:02:55;;;;;;;0.80;0.25;;;;;;;;;;5011387;28;20033;-58
2021/11/28 12:05:29;;;;;;;0.90;0.50;;;;;;;;;;5004448;28;20033;-57
2021/11/28 12:08:00;;;;;;;2.58;0.35;;;;;;;;;;4990726;28;20189;-58
2021/11/28 12:10:28;;;;;;;4.28;0.38;;;;;;;;;;5003573;28;20064;-57
2021/11/28 12:12:54;;;;;;;0.15;0.15;;;;;;;;;;4988361;28;20038;-57
2021/11/28 12:15:28;;;;;;;3.78;0.20;;;;;;;;;;4992266;28;20033;-58
2021/11/28 12:17:59;;;;;;;4.20;0.60;;;;;;;;;;5011690;28;20132;-57
2021/11/28 12:20:42;;;;;;;9.70;0.57;;;;;;;;;;5011596;28;20068;-56
2021/11/28 12:23:08;;;;;;;2.47;0.25;;;;;;;;;;5013269;28;20141;-57
2021/11/28 12:25:52;;;;;;;5.47;0.55;;;;;;;;;;5012443;28;20086;-57
2021/11/28 12:28:20;;;;;;;0.40;0.10;;;;;;;;;;4996529;28;20037;-57
2021/11/28 12:30:56;;;;;;;2.30;0.95;;;;;;;;;;5018297;28;20075;-57
2021/11/28 12:33:43;;;;;;;3.47;0.30;;;;;;;;;;5014130;28;20033;-58
2021/11/28 12:36:31;;;;;;;2.08;0.30;;;;;;;;;;4991307;28;20815;-57
2021/11/28 12:38:59;;;;;;;3.42;0.43;;;;;;;;;;5011769;28;20033;-56
2021/11/28 12:41:43;;;;;;;5.13;0.25;;;;;;;;;;5014365;28;21898;-57
2021/11/28 12:44:09;;;;;;;1.13;0.40;;;;;;;;;;5014973;28;20036;-56
2021/11/28 12:46:40;;;;;;;4.38;0.40;;;;;;;;;;4994963;28;20141;-55
2021/11/28 12:49:24;;;;;;;1.42;0.30;;;;;;;;;;5014659;28;20329;-57
2021/11/28 12:51:50;;;;;;;2.45;0.40;;;;;;;;;;4993391;28;20041;-57
2021/11/28 12:54:26;;;;;;;5.18;0.63;;;;;;;;;;5016667;28;20104;-57
2021/11/28 12:57:11;;;;;;;4.15;0.80;;;;;;;;;;5011632;28;20576;-57
2021/11/28 12:59:39;;;;;;;2.47;0.82;;;;;;;;;;5011309;28;20033;-56
2021/11/28 13:02:06;;;;;;;0.32;0.32;;;;;;;;;;4975974;28;20114;-58
2021/11/28 13:04:41;;;;;;;0.52;0.52;;;;;;;;;;5013672;28;20042;-57
2021/11/28 13:07:22;;;;;;;6.32;0.93;;;;;;;;;;5014615;28;20052;-57
2021/11/28 13:09:54;;;;;;;3.13;0.80;;;;;;;;;;5011868;28;20037;-57
2021/11/28 13:12:22;;;;;;;1.20;0.32;;;;;;;;;;4996282;28;20053;-56
2021/11/28 13:14:54;;;;;;;1.10;0.63;;;;;;;;;;4995704;28;20049;-57
2021/11/28 13:17:23;;;;;;;3.13;0.70;;;;;;;;;;5015772;28;20341;-57
2021/11/28 13:19:49;;;;;;;1.05;0.45;;;;;;;;;;5017773;28;20127;-56
2021/11/28 13:22:15;;;;;;;0.98;0.60;;;;;;;;;;5012821;28;20037;-58
2021/11/28 13:24:44;;;;;;;5.90;0.57;;;;;;;;;;5014653;28;20044;-58
2021/11/28 13:27:10;;;;;;;4.10;0.73;;;;;;;;;;5012238;28;20045;-57
2021/11/28 13:29:51;;;;;;;1.77;0.30;;;;;;;;;;5005846;28;20037;-58
2021/11/28 13:32:17;;;;;;;0.57;0.20;;;;;;;;;;5011599;28;20042;-57
2021/11/28 13:34:45;;;;;;;3.65;0.40;;;;;;;;;;4991574;28;20032;-58
2021/11/28 13:37:19;;;;;;;2.88;0.60;;;;;;;;;;5012006;28;20032;-58
2021/11/28 13:39:45;;;;;;;0.52;0.15;;;;;;;;;;4992419;28;20046;-56
2021/11/28 13:42:11;;;;;;;2.30;0.47;;;;;;;;;;5008863;28;20053;-58
2021/11/28 13:44:45;;;;;;;4.00;0.57;;;;;;;;;;4992028;28;20069;-58
2021/11/28 13:47:12;;;;;;;2.33;0.60;;;;;;;;;;5012298;28;20053;-58
2021/11/28 13:49:46;;;;;;;1.05;0.30;;;;;;;;;;5012274;28;21125;-58
2021/11/28 13:52:11;;;;;;;0.77;0.40;;;;;;;;;;4993923;28;20087;-58
2021/11/28 13:54:45;;;;;;;0.95;0.50;;;;;;;;;;5010584;28;20406;-57
2021/11/28 13:57:17;;;;;;;0.47;0.30;;;;;;;;;;5006930;28;20037;-58
2021/11/28 13:59:43;;;;;;;3.55;0.52;;;;;;;;;;4988494;28;20064;-57
2021/11/28 14:02:16;;;;;;;3.05;0.47;;;;;;;;;;5008901;28;20718;-58
2021/11/28 14:04:49;;;;;;;2.70;0.80;;;;;;;;;;5012030;28;20040;-58
2021/11/28 14:07:16;;;;;;;8.57;1.00;;;;;;;;;;5009875;28;20079;-60
2021/11/28 14:09:45;;;;;;;7.38;0.60;;;;;;;;;;4989438;28;20032;-58
2021/11/28 14:12:23;;;;;;;1.52;0.20;;;;;;;;;;5010671;28;20046;-59
2021/11/28 14:15:11;;;;;;;1.10;0.20;;;;;;;;;;5012302;28;20425;-57
2021/11/28 14:17:37;;;;;;;3.95;0.32;;;;;;;;;;5013665;28;20049;-59
2021/11/28 14:20:09;;;;;;;2.25;0.75;;;;;;;;;;4996959;28;20026;-60
2021/11/28 14:22:39;;;;;;;2.47;0.40;;;;;;;;;;5013250;28;20025;-57
2021/11/28 14:25:23;;;;;;;0.57;0.38;;;;;;;;;;5012228;28;20044;-57
2021/11/28 14:28:07;;;;;;;2.35;0.10;;;;;;;;;;5005277;28;20146;-59
2021/11/28 14:30:56;;;;;;;1.52;0.30;;;;;;;;;;5011608;28;20033;-58
2021/11/28 14:33:30;;;;;;;0.38;0.10;;;;;;;;;;5008555;28;20037;-57
2021/11/28 14:36:00;;;;;;;1.55;0.70;;;;;;;;;;4994911;28;20125;-59
2021/11/28 14:38:25;;;;;;;5.05;2.08;;;;;;;;;;4984087;28;20032;-59
2021/11/28 14:40:52;;;;;;;1.00;0.20;;;;;;;;;;4991280;28;20810;-58
2021/11/28 14:43:23;;;;;;;0.28;0.28;;;;;;;;;;5012251;28;20780;-57
2021/11/28 14:46:04;;;;;;;0.63;0.20;;;;;;;;;;5009157;28;20071;-59
2021/11/28 14:48:32;;;;;;;0.13;0.08;;;;;;;;;;5007594;28;20043;-59
2021/11/28 14:51:01;;;;;;;3.80;0.45;;;;;;;;;;5013423;28;20044;-59
2021/11/28 14:53:35;;;;;;;0.63;0.22;;;;;;;;;;4996958;28;20053;-58
2021/11/28 14:56:00;;;;;;;1.10;0.13;;;;;;;;;;5008116;28;20079;-57
2021/11/28 14:58:39;;;;;;;1.38;0.10;;;;;;;;;;4991862;28;20213;-57
2021/11/28 15:01:08;;;;;;;2.90;0.20;;;;;;;;;;4988803;28;20033;-58